Main page
METAR-TAF:

METAR-TAF

Airports :

Quito, Ecuador

Mariscal Sucre International Airport

latitude: 0-06-48S, longitude: 78-21-31W, elevation: 2400 m

Current weather observation

The report was made 19 minutes ago, at 00:00 UTC
Wind 7 kt from the North/Northeast
Temperature 17°C
Humidity 59%
Pressure 1024 hPa
Visibility 10 km or more
no clouds below 1500 m and no cumulonimbus

METAR: SEQM 200000Z 02007KT CAVOK 17/09 Q1024 NOSIG RMK A3024

Time: 19:19 (00:19 UTC)

Forecast

The report was made 1 hour and 43 minutes ago, at 22:36 UTC
Forecast valid from 20 at 00 UTC to 20 at 24 UTC
Wind 3 kt from the Northeast
Visibility 10 km or more
Scattered clouds at a height of 2000 ft
From 20 at 1200 UTC
Wind 3 kt from variable directions
Visibility 10 km or more
Few clouds at a height of 4000 ft
From 20 at 1800 UTC
Wind 10 kt from the North
Visibility 10 km or more
Scattered clouds at a height of 4000 ft

TAF: SEQM 192236Z 2000/2024 04003KT 9999 SCT020 FM201200 VRB03KT 9999 FEW040 FM201800 36010KT 9999 SCT040 TX27/2019Z TN06/2011Z

Weather observations and forecasts of more than 4000 airports (METAR and TAF reports).

The available stations are represented by yellow and red dots on the map.

Hover mouse over dot to see the name of the station.

Then click to see weather observations and forecasts.

To change the map : click on the green buttons with a black cross to zoom in, on the green button with a dash to zoom out, or on the green arrows for adjacent maps.


METAR-TAF: